createdAt,value
2019-04-01T00:04:16.469Z,94.13
2019-04-01T00:09:20.701Z,94.01
2019-04-01T00:14:25.489Z,92.40
2019-04-01T00:19:29.817Z,92.02
2019-04-01T00:24:33.884Z,90.55
2019-04-01T00:29:38.020Z,89.98
2019-04-01T00:34:42.205Z,89.76
2019-04-01T00:39:46.414Z,89.95
2019-04-01T00:44:50.689Z,90.13
2019-04-01T00:49:54.974Z,90.46
2019-04-01T00:55:00.468Z,90.09
2019-04-01T01:00:05.345Z,90.09
2019-04-01T01:05:09.716Z,90.14
2019-04-01T01:15:24.878Z,90.43
2019-04-01T01:20:29.113Z,89.84
2019-04-01T01:25:33.241Z,89.81
2019-04-01T01:30:37.509Z,90.01
2019-04-01T01:35:41.744Z,90.13
2019-04-01T01:40:46.043Z,90.30
2019-04-01T01:45:50.264Z,90.50
2019-04-01T01:50:54.499Z,90.59
2019-04-01T01:55:59.715Z,90.90
2019-04-01T02:01:04.185Z,90.98
2019-04-01T02:06:08.565Z,90.83
2019-04-01T02:11:12.839Z,90.96
2019-04-01T02:16:17.084Z,91.03
2019-04-01T02:21:21.739Z,91.45
2019-04-01T02:26:26.085Z,91.86
2019-04-01T02:31:30.291Z,92.05
2019-04-01T02:36:34.629Z,92.52
2019-04-01T02:41:39.106Z,92.86
2019-04-01T02:46:43.383Z,93.31
2019-04-01T02:51:47.719Z,93.64
2019-04-01T02:56:52.949Z,93.84
2019-04-01T03:01:57.205Z,93.86
2019-04-01T03:07:01.512Z,93.95
2019-04-01T03:12:05.813Z,94.27
2019-04-01T03:17:10.115Z,94.33
2019-04-01T03:22:14.325Z,94.39
2019-04-01T03:27:18.661Z,94.39
2019-04-01T03:32:22.841Z,94.52
2019-04-01T03:37:27.164Z,94.59
2019-04-01T03:42:31.370Z,94.82
2019-04-01T03:47:35.705Z,95.23
2019-04-01T03:52:39.921Z,95.47
2019-04-01T03:57:44.828Z,95.53
2019-04-01T04:02:49.258Z,95.60
2019-04-01T04:07:53.646Z,95.72
2019-04-01T04:12:57.869Z,95.79
2019-04-01T04:18:01.992Z,95.72
2019-04-01T04:23:06.219Z,95.79
2019-04-01T04:28:10.452Z,96.07
2019-04-01T04:33:14.813Z,96.20
2019-04-01T04:38:19.013Z,96.28
2019-04-01T04:43:23.397Z,96.38
2019-04-01T04:48:27.577Z,96.53
2019-04-01T04:53:31.909Z,96.71
2019-04-01T04:58:36.243Z,96.86
2019-04-01T05:03:40.468Z,96.78
2019-04-01T05:08:44.798Z,96.88
2019-04-01T05:13:51.379Z,97.02
2019-04-01T05:18:55.619Z,97.25
2019-04-01T05:24:00.624Z,97.39
2019-04-01T05:29:04.906Z,97.59
2019-04-01T05:34:10.430Z,97.80
2019-04-01T05:39:15.137Z,97.94
2019-04-01T05:44:19.394Z,98.04
2019-04-01T05:49:23.844Z,98.15
2019-04-01T05:54:28.104Z,98.27
2019-04-01T05:59:32.465Z,98.23
2019-04-01T06:04:36.866Z,98.19
2019-04-01T06:09:41.140Z,98.24
2019-04-01T06:14:46.105Z,98.26
2019-04-01T06:19:51.386Z,98.24
2019-04-01T06:24:55.827Z,98.11
2019-04-01T06:30:00.378Z,97.99
2019-04-01T06:35:05.585Z,98.09
2019-04-01T06:40:10.859Z,98.15
2019-04-01T06:45:15.266Z,98.11
2019-04-01T06:50:19.565Z,98.15
2019-04-01T06:55:24.386Z,98.17
2019-04-01T07:00:28.817Z,98.03
2019-04-01T07:05:33.045Z,97.85
2019-04-01T07:10:37.367Z,97.83
2019-04-01T07:15:41.632Z,97.67
2019-04-01T07:20:47.777Z,97.55
2019-04-01T07:25:52.445Z,97.51
2019-04-01T07:30:56.825Z,97.45
2019-04-01T07:36:04.265Z,97.24
2019-04-01T07:41:08.705Z,97.08
2019-04-01T07:46:12.926Z,96.67
2019-04-01T07:51:17.378Z,96.59
2019-04-01T07:56:21.861Z,96.32
2019-04-01T08:01:26.300Z,96.02
2019-04-01T08:06:30.570Z,95.63
2019-04-01T08:11:35.126Z,95.80
2019-04-01T08:16:39.446Z,95.76
2019-04-01T08:21:43.885Z,95.78
2019-04-01T08:26:48.025Z,95.64
2019-04-01T08:31:52.467Z,95.21
2019-04-01T08:36:56.667Z,95.01
2019-04-01T08:42:01.158Z,94.91
2019-04-01T08:47:05.464Z,94.87
2019-04-01T08:52:11.149Z,95.14
2019-04-01T08:57:15.747Z,95.00
2019-04-01T09:02:22.127Z,94.87
2019-04-01T09:07:26.514Z,94.75
2019-04-01T09:12:30.811Z,94.69
2019-04-01T09:17:35.290Z,94.67
2019-04-01T09:22:39.951Z,94.09
2019-04-01T09:27:44.059Z,93.66
2019-04-01T09:32:48.273Z,93.47
2019-04-01T09:37:52.540Z,93.56
2019-04-01T09:42:56.679Z,93.79
2019-04-01T09:48:01.023Z,93.61
2019-04-01T09:53:05.360Z,93.85
2019-04-01T09:58:09.729Z,93.53
2019-04-01T10:03:14.033Z,93.47
2019-04-01T10:08:18.293Z,92.16
2019-04-01T10:19:07.879Z,92.75
2019-04-01T10:24:12.199Z,92.67
2019-04-01T10:29:16.740Z,92.09
2019-04-01T10:34:21.780Z,91.92
2019-04-01T10:39:26.120Z,91.08
2019-04-01T10:44:32.979Z,90.15
2019-04-01T10:49:38.629Z,90.64
2019-04-01T10:54:43.016Z,91.43
2019-04-01T10:59:47.399Z,90.12
2019-04-01T11:04:51.742Z,90.71
2019-04-01T11:09:57.479Z,90.58
2019-04-01T11:15:02.083Z,89.83
2019-04-01T11:20:08.046Z,89.21
2019-04-01T11:25:13.105Z,89.41
2019-04-01T11:30:17.612Z,89.21
2019-04-01T11:35:22.179Z,88.93
2019-04-01T11:40:29.466Z,88.58
2019-04-01T11:45:33.945Z,89.12
2019-04-01T11:50:38.371Z,88.47
2019-04-01T11:55:42.738Z,89.01
2019-04-01T12:00:47.208Z,89.10
2019-04-01T12:05:52.387Z,88.30
2019-04-01T12:10:56.982Z,87.60
2019-04-01T12:16:01.240Z,88.35
2019-04-01T12:21:05.406Z,89.54
2019-04-01T12:26:15.380Z,89.25
2019-04-01T12:31:15.838Z,90.01
2019-04-01T12:36:20.200Z,89.65
2019-04-01T12:41:24.501Z,87.19
2019-04-01T12:46:28.892Z,86.95
2019-04-01T12:51:33.169Z,87.05
2019-04-01T12:56:37.759Z,88.08
2019-04-01T13:01:42.027Z,87.74
2019-04-01T13:06:47.178Z,87.49
2019-04-01T13:11:51.299Z,87.90
2019-04-01T13:16:57.206Z,87.97
2019-04-01T13:22:01.610Z,86.16
2019-04-01T13:27:09.195Z,86.26
2019-04-01T13:32:12.450Z,87.46
2019-04-01T13:37:18.273Z,88.33
2019-04-01T13:42:24.898Z,88.36
2019-04-01T13:47:28.642Z,87.02
2019-04-01T13:52:33.091Z,87.57
2019-04-01T13:57:38.291Z,88.11
2019-04-01T14:02:42.725Z,87.63
2019-04-01T14:07:47.805Z,87.78
2019-04-01T14:12:51.871Z,87.20
2019-04-01T14:17:58.226Z,88.13
2019-04-01T14:23:02.447Z,87.72
2019-04-01T14:28:06.886Z,86.20
2019-04-01T14:33:11.012Z,84.90
2019-04-01T14:38:15.257Z,85.25
2019-04-01T14:43:19.481Z,85.95
2019-04-01T14:48:23.921Z,85.81
2019-04-01T14:53:28.076Z,85.43
2019-04-01T14:58:32.372Z,85.57
2019-04-01T15:03:36.886Z,84.46
2019-04-01T15:08:41.301Z,83.95
2019-04-01T15:13:45.727Z,85.76
2019-04-01T15:18:50.066Z,85.18
2019-04-01T15:23:54.242Z,83.90
2019-04-01T15:28:58.463Z,85.41
2019-04-01T15:34:02.701Z,86.15
2019-04-01T15:39:07.163Z,86.62
2019-04-01T15:44:11.371Z,85.78
2019-04-01T15:49:15.749Z,85.73
2019-04-01T15:54:19.985Z,85.44
2019-04-01T15:59:25.341Z,84.37
2019-04-01T16:04:29.657Z,84.32
2019-04-01T16:09:33.951Z,83.93
2019-04-01T16:14:38.176Z,85.24
2019-04-01T16:19:42.607Z,85.36
2019-04-01T16:24:49.203Z,84.89
2019-04-01T16:29:53.523Z,84.72
2019-04-01T16:34:57.729Z,84.60
2019-04-01T16:40:05.590Z,86.24
2019-04-01T16:45:08.362Z,87.16
2019-04-01T16:50:12.596Z,87.33
2019-04-01T16:55:18.408Z,87.03
2019-04-01T17:00:23.008Z,87.25
2019-04-01T17:05:31.914Z,87.43
2019-04-01T17:10:37.593Z,87.94
2019-04-01T17:15:41.676Z,87.89
2019-04-01T17:20:45.875Z,87.94
2019-04-01T17:25:50.086Z,88.11
2019-04-01T17:30:54.418Z,87.90
2019-04-01T17:35:58.656Z,88.55
2019-04-01T17:41:03.091Z,88.26
2019-04-01T17:46:08.226Z,88.20
2019-04-01T17:51:13.362Z,88.62
2019-04-01T17:56:18.473Z,88.88
2019-04-01T18:01:22.776Z,89.17
2019-04-01T18:06:30.046Z,89.30
2019-04-01T18:11:34.257Z,89.14
2019-04-01T18:16:38.498Z,89.34
2019-04-01T18:21:43.906Z,89.08
2019-04-01T18:26:48.039Z,89.38
2019-04-01T18:31:52.435Z,89.86
2019-04-01T18:36:56.562Z,90.51
2019-04-01T18:42:00.827Z,91.28
2019-04-01T18:47:05.197Z,91.72
2019-04-01T18:52:09.609Z,91.28
2019-04-01T18:57:13.718Z,91.44
2019-04-01T19:02:17.797Z,90.91
2019-04-01T19:07:22.188Z,90.50
2019-04-01T19:12:27.301Z,90.12
2019-04-01T19:17:31.468Z,89.30
2019-04-01T19:22:35.599Z,89.38
2019-04-01T19:27:39.786Z,89.65
2019-04-01T19:32:43.969Z,89.83
2019-04-01T19:37:48.228Z,90.15
2019-04-01T19:42:52.406Z,90.42
2019-04-01T19:47:57.425Z,91.07
2019-04-01T19:53:02.869Z,91.52
2019-04-01T19:58:07.250Z,91.77
2019-04-01T20:03:12.811Z,91.50
2019-04-01T20:08:16.963Z,91.41
2019-04-01T20:13:21.401Z,91.41
2019-04-01T20:18:25.614Z,91.61
2019-04-01T20:23:29.901Z,92.04
2019-04-01T20:28:34.063Z,92.02
2019-04-01T20:33:38.401Z,91.99
2019-04-01T20:38:42.723Z,92.25
2019-04-01T20:43:49.869Z,92.11
2019-04-01T20:48:52.783Z,91.91
2019-04-01T20:53:57.041Z,92.01
2019-04-01T20:59:01.391Z,92.31
2019-04-01T21:04:05.545Z,92.68
2019-04-01T21:09:10.001Z,92.87
2019-04-01T21:14:15.104Z,93.06
2019-04-01T21:19:19.341Z,93.11
2019-04-01T21:24:23.523Z,92.95
2019-04-01T21:29:27.825Z,92.81
2019-04-01T21:34:31.964Z,92.76
2019-04-01T21:39:37.876Z,92.93
2019-04-01T21:44:42.201Z,93.01
2019-04-01T21:49:46.504Z,93.10
2019-04-01T21:54:50.664Z,93.23
2019-04-01T21:59:54.903Z,93.32
2019-04-01T22:04:59.043Z,93.48
2019-04-01T22:10:03.765Z,93.61
2019-04-01T22:15:08.086Z,93.81
2019-04-01T22:20:12.264Z,93.68
2019-04-01T22:25:16.433Z,93.32
2019-04-01T22:30:20.894Z,93.33
2019-04-01T22:35:25.050Z,93.57
2019-04-01T22:40:30.517Z,93.76
2019-04-01T22:45:35.050Z,93.89
2019-04-01T22:50:39.510Z,94.37
2019-04-01T22:55:43.679Z,94.48
2019-04-01T23:00:47.921Z,94.38
2019-04-01T23:05:55.685Z,93.72
2019-04-01T23:11:00.005Z,92.64
2019-04-01T23:16:04.519Z,91.94
2019-04-01T23:21:09.776Z,91.13
2019-04-01T23:26:13.890Z,92.09
2019-04-01T23:31:18.202Z,93.18
2019-04-01T23:36:22.681Z,94.32
2019-04-01T23:41:26.674Z,94.67
2019-04-01T23:46:30.760Z,94.63
2019-04-01T23:51:35.264Z,94.94
2019-04-01T23:56:40.214Z,94.96
